Aviation Digital Data Service (ADDS)

Output produced by METARs form (0926 UTC 25 November 2017)
found at http://www.aviationweather.gov/adds/metars/
 
KDOV 250856Z AUTO 19004KT 10SM CLR 02/02 A2988 RMK AO2 SLP122 T00180018 57019 $
TAF KDOV 250800Z 2508/2614 20009KT 9999 SKC QNH2972INS 
     BECMG 2522/2523 25009KT 9999 SCT030 BKN060 QNH2972INS 
     BECMG 2605/2606 29012KT 9999 FEW050 510253 QNH2982INS 
     BECMG 2613/2614 31010G20KT 9999 FEW050 QNH3000INS TX14/2520Z TN02/2508Z